Callander, Canada
Current Conditions -  °F | °C
As of 7:23 AM on Monday 24 Nov 2014 (Local Time) from CYYB Reporting Station
Rain Showers Rain Showers  
Wind Chill: 33°   Ceiling: 300
Heat Index: 41°   Visibility: 10mi
Dew Point: 41°   Wind: 16mph
Humidity: 100%   Direction: 130°SE
Pressure: 29.05"   Gusts: NA
Location:  46.22°N, 79.36°W
Report Text: CYYB 241223Z 13014KT 10SM -SHRA OVC003 05/05 A2905 RMK SF8 CIG RAG PRESFR SLP846 DENSITY ALT 1300FT
Loading
Personal Weather Stations






























Interactive Weather Map New forecast layout! Learn more

10-Day Weather Forecast

Advertisements
Track Severe Weather on mobile